createdAt,value
2022-11-14T00:00:51.962Z,5.90
2022-11-14T00:03:37.585Z,5.90
2022-11-14T00:06:22.976Z,5.90
2022-11-14T00:09:08.605Z,6.00
2022-11-14T00:11:54.560Z,6.00
2022-11-14T00:14:39.849Z,6.00
2022-11-14T00:17:25.102Z,6.00
2022-11-14T00:20:12.683Z,6.10
2022-11-14T00:22:58.377Z,6.00
2022-11-14T00:25:45.435Z,6.10
2022-11-14T00:28:30.879Z,6.10
2022-11-14T00:31:16.498Z,6.00
2022-11-14T00:34:01.882Z,5.90
2022-11-14T00:36:47.105Z,6.00
2022-11-14T00:39:32.706Z,6.00
2022-11-14T00:42:18.780Z,6.00
2022-11-14T00:45:04.433Z,6.10
2022-11-14T00:47:49.623Z,6.10
2022-11-14T00:50:35.153Z,6.00
2022-11-14T00:53:20.504Z,6.00
2022-11-14T00:56:05.998Z,6.00
2022-11-14T00:58:51.419Z,6.00
2022-11-14T01:01:37.081Z,6.00
2022-11-14T01:04:22.467Z,6.00
2022-11-14T01:07:07.557Z,6.00
2022-11-14T01:09:52.715Z,6.10
2022-11-14T01:12:37.990Z,6.00
2022-11-14T01:15:23.237Z,6.00
2022-11-14T01:18:11.695Z,6.00
2022-11-14T01:20:57.343Z,6.00
2022-11-14T01:23:42.962Z,6.00
2022-11-14T01:26:28.193Z,6.00
2022-11-14T01:29:14.114Z,6.00
2022-11-14T01:31:59.864Z,6.00
2022-11-14T01:34:46.779Z,6.00
2022-11-14T01:37:32.869Z,6.00
2022-11-14T01:40:18.595Z,6.10
2022-11-14T01:43:34.397Z,6.00
2022-11-14T01:46:31.312Z,5.90
2022-11-14T01:49:21.827Z,6.00
2022-11-14T01:52:13.569Z,6.00
2022-11-14T01:55:02.753Z,5.90
2022-11-14T01:57:49.581Z,5.90
2022-11-14T02:00:35.782Z,5.90
2022-11-14T02:03:21.632Z,5.80
2022-11-14T02:06:09.404Z,5.70
2022-11-14T02:08:56.408Z,5.80
2022-11-14T02:11:45.153Z,5.80
2022-11-14T02:14:31.119Z,5.80
2022-11-14T02:17:33.717Z,5.70
2022-11-14T02:20:20.861Z,5.70
2022-11-14T02:23:06.492Z,5.60
2022-11-14T02:25:52.069Z,5.50
2022-11-14T02:28:37.447Z,5.50
2022-11-14T02:31:22.843Z,5.40
2022-11-14T02:34:08.415Z,5.40
2022-11-14T02:36:53.815Z,5.40
2022-11-14T02:39:39.230Z,5.40
2022-11-14T02:42:24.695Z,5.40
2022-11-14T02:45:12.019Z,5.40
2022-11-14T02:48:00.163Z,5.40
2022-11-14T02:50:47.972Z,5.40
2022-11-14T02:53:33.306Z,5.30
2022-11-14T02:56:18.622Z,5.40
2022-11-14T02:59:04.277Z,5.40
2022-11-14T03:01:49.521Z,5.30
2022-11-14T03:04:34.843Z,5.30
2022-11-14T03:07:20.010Z,5.20
2022-11-14T03:10:06.315Z,5.30
2022-11-14T03:12:56.142Z,5.40
2022-11-14T03:15:41.312Z,5.30
2022-11-14T03:18:26.609Z,5.30
2022-11-14T03:21:20.496Z,5.30
2022-11-14T03:24:06.491Z,5.20
2022-11-14T03:26:51.795Z,5.20
2022-11-14T03:29:37.585Z,5.20
2022-11-14T03:32:23.183Z,5.30
2022-11-14T03:35:09.193Z,5.30
2022-11-14T03:37:56.534Z,5.30
2022-11-14T03:40:42.315Z,5.40
2022-11-14T03:43:31.837Z,5.40
2022-11-14T03:46:17.418Z,5.40
2022-11-14T03:49:03.183Z,5.40
2022-11-14T03:51:48.760Z,5.40
2022-11-14T03:54:34.350Z,5.40
2022-11-14T03:57:20.028Z,5.40
2022-11-14T04:00:05.990Z,5.40
2022-11-14T04:02:51.502Z,5.50
2022-11-14T04:05:36.832Z,5.40
2022-11-14T04:08:22.174Z,5.40
2022-11-14T04:11:08.144Z,5.40
2022-11-14T04:13:53.494Z,5.40
2022-11-14T04:16:39.028Z,5.50
2022-11-14T04:19:24.218Z,5.50
2022-11-14T04:22:09.705Z,5.50
2022-11-14T04:24:55.009Z,5.50
2022-11-14T04:27:40.820Z,5.50
2022-11-14T04:30:28.723Z,5.60
2022-11-14T04:33:17.714Z,5.50
2022-11-14T04:36:03.495Z,5.50
2022-11-14T04:38:49.426Z,5.50
2022-11-14T04:41:34.652Z,5.60
2022-11-14T04:44:19.848Z,5.60
2022-11-14T04:47:05.441Z,5.60
2022-11-14T04:49:51.190Z,5.50
2022-11-14T04:52:36.574Z,5.40
2022-11-14T04:55:22.001Z,5.40
2022-11-14T04:58:07.505Z,5.40
2022-11-14T05:00:52.987Z,5.40
2022-11-14T05:03:38.715Z,5.40
2022-11-14T05:06:24.185Z,5.30
2022-11-14T05:09:09.734Z,5.20
2022-11-14T05:11:54.985Z,5.30
2022-11-14T05:14:40.594Z,5.30
2022-11-14T05:17:26.526Z,5.30
2022-11-14T05:20:12.548Z,5.40
2022-11-14T05:22:58.511Z,5.20
2022-11-14T05:25:43.980Z,5.20
2022-11-14T05:28:29.659Z,5.10
2022-11-14T05:31:18.081Z,5.00
2022-11-14T05:34:03.660Z,5.00
2022-11-14T05:36:48.753Z,5.00
2022-11-14T05:39:34.398Z,5.00
2022-11-14T05:42:19.756Z,5.10
2022-11-14T05:45:05.971Z,5.00
2022-11-14T05:47:54.119Z,5.00
2022-11-14T05:50:40.031Z,5.00
2022-11-14T05:53:26.773Z,4.90
2022-11-14T05:56:12.868Z,4.90
2022-11-14T05:58:58.393Z,4.90
2022-11-14T06:01:44.142Z,4.90
2022-11-14T06:04:29.916Z,4.90
2022-11-14T06:07:19.865Z,5.00
2022-11-14T06:10:05.560Z,5.00
2022-11-14T06:12:51.865Z,5.00
2022-11-14T06:15:37.321Z,5.10
2022-11-14T06:18:22.896Z,5.10
2022-11-14T06:21:16.246Z,5.10
2022-11-14T06:24:02.087Z,5.10
2022-11-14T06:26:47.579Z,5.10
2022-11-14T06:29:35.495Z,5.20
2022-11-14T06:32:21.248Z,5.20
2022-11-14T06:35:08.366Z,5.30
2022-11-14T06:37:54.390Z,5.30
2022-11-14T06:40:39.714Z,5.30
2022-11-14T06:43:24.984Z,5.30
2022-11-14T06:46:12.991Z,5.20
2022-11-14T06:48:58.652Z,5.20
2022-11-14T06:51:44.072Z,5.00
2022-11-14T06:54:29.484Z,5.00
2022-11-14T06:57:14.828Z,4.90
2022-11-14T07:00:00.636Z,4.90
2022-11-14T07:02:47.209Z,4.80
2022-11-14T07:05:33.353Z,4.80
2022-11-14T07:08:21.220Z,4.70
2022-11-14T07:11:23.106Z,4.60
2022-11-14T07:14:09.460Z,4.70
2022-11-14T07:16:54.808Z,4.70
2022-11-14T07:19:40.342Z,4.60
2022-11-14T07:22:25.496Z,4.60
2022-11-14T07:25:11.270Z,4.60
2022-11-14T07:27:58.146Z,4.50
2022-11-14T07:30:43.421Z,4.50
2022-11-14T07:33:30.140Z,4.50
2022-11-14T07:36:16.807Z,4.40
2022-11-14T07:39:02.270Z,4.40
2022-11-14T07:41:47.647Z,4.40
2022-11-14T07:44:32.826Z,4.40
2022-11-14T07:47:18.116Z,4.50
2022-11-14T07:50:03.932Z,4.50
2022-11-14T07:52:53.760Z,4.50
2022-11-14T07:55:39.470Z,4.50
2022-11-14T07:58:24.949Z,4.60
2022-11-14T08:01:12.661Z,4.60
2022-11-14T08:03:58.252Z,4.50
2022-11-14T08:06:43.892Z,4.60
2022-11-14T08:09:29.457Z,4.80
2022-11-14T08:12:14.720Z,4.80
2022-11-14T08:15:00.135Z,4.90
2022-11-14T08:17:45.478Z,5.10
2022-11-14T08:20:30.566Z,5.20
2022-11-14T08:23:16.049Z,5.40
2022-11-14T08:26:01.207Z,5.60
2022-11-14T08:28:46.698Z,5.60
2022-11-14T08:31:32.070Z,5.70
2022-11-14T08:34:17.782Z,5.80
2022-11-14T08:37:03.360Z,6.00
2022-11-14T08:39:48.500Z,6.20
2022-11-14T08:42:34.295Z,6.30
2022-11-14T08:45:19.553Z,6.30
2022-11-14T08:48:05.778Z,6.30
2022-11-14T08:50:51.946Z,6.30
2022-11-14T08:53:37.136Z,6.40
2022-11-14T08:56:22.788Z,6.50
2022-11-14T08:59:08.341Z,6.60
2022-11-14T09:01:53.782Z,6.70
2022-11-14T09:04:39.429Z,6.80
2022-11-14T09:07:24.842Z,6.80
2022-11-14T09:10:10.695Z,6.90
2022-11-14T09:12:58.020Z,7.00
2022-11-14T09:15:44.013Z,7.10
2022-11-14T09:18:30.948Z,7.10
2022-11-14T09:21:16.225Z,7.10
2022-11-14T09:24:02.035Z,7.10
2022-11-14T09:26:54.936Z,7.20
2022-11-14T09:29:41.407Z,7.20
2022-11-14T09:32:26.663Z,7.30
2022-11-14T09:35:12.799Z,7.30
2022-11-14T09:38:03.298Z,7.30
2022-11-14T09:41:01.869Z,7.40
2022-11-14T09:44:35.013Z,7.50
2022-11-14T09:48:13.277Z,7.70
2022-11-14T09:51:14.339Z,7.70
2022-11-14T09:54:12.389Z,7.70
2022-11-14T09:56:57.980Z,7.80
2022-11-14T09:59:44.127Z,7.80
2022-11-14T10:02:44.124Z,8.00
2022-11-14T10:05:42.001Z,8.20
2022-11-14T10:08:41.222Z,8.30
2022-11-14T10:11:40.104Z,8.50
2022-11-14T10:14:54.766Z,8.70
2022-11-14T10:17:58.698Z,8.90
2022-11-14T10:20:46.303Z,9.00
2022-11-14T10:23:40.142Z,9.20
2022-11-14T10:26:32.019Z,9.20
2022-11-14T10:29:19.975Z,9.40
2022-11-14T10:32:14.353Z,9.50
2022-11-14T10:35:19.845Z,9.70
2022-11-14T10:38:30.251Z,9.80
2022-11-14T10:41:34.536Z,9.90
2022-11-14T10:44:28.340Z,10.00
2022-11-14T10:47:18.457Z,9.90
2022-11-14T10:50:23.462Z,9.90
2022-11-14T10:53:41.410Z,9.90
2022-11-14T10:56:26.703Z,10.00
2022-11-14T10:59:12.072Z,10.00
2022-11-14T11:01:58.590Z,10.00
2022-11-14T11:04:45.502Z,10.10
2022-11-14T11:07:49.605Z,10.20
2022-11-14T11:10:58.316Z,10.30
2022-11-14T11:13:58.219Z,10.30
2022-11-14T11:16:46.373Z,10.40
2022-11-14T11:19:31.598Z,10.40
2022-11-14T11:22:30.800Z,10.40
2022-11-14T11:25:30.597Z,10.40
2022-11-14T11:28:19.181Z,10.40
2022-11-14T11:31:09.319Z,10.40
2022-11-14T11:33:55.364Z,10.40
2022-11-14T11:36:45.906Z,10.50
2022-11-14T11:39:35.679Z,10.50
2022-11-14T11:42:24.725Z,10.50
2022-11-14T11:45:17.446Z,10.50
2022-11-14T11:48:22.074Z,10.40
2022-11-14T11:51:16.962Z,10.40
2022-11-14T11:54:19.997Z,10.40
2022-11-14T11:57:20.139Z,10.50
2022-11-14T12:00:21.311Z,10.50
2022-11-14T12:03:13.231Z,10.50
2022-11-14T12:06:15.929Z,10.40
2022-11-14T12:09:29.536Z,10.50
2022-11-14T12:12:48.213Z,10.30
2022-11-14T12:16:06.454Z,10.20
2022-11-14T12:19:13.102Z,10.30
2022-11-14T12:22:49.193Z,10.40
2022-11-14T12:25:44.076Z,10.30
2022-11-14T12:28:41.652Z,10.30
2022-11-14T12:31:35.190Z,10.20
2022-11-14T12:34:28.682Z,10.20
2022-11-14T12:37:34.702Z,10.30
2022-11-14T12:40:28.915Z,10.20
2022-11-14T12:43:39.698Z,10.30
2022-11-14T12:46:25.131Z,10.40
2022-11-14T12:49:47.570Z,10.20
2022-11-14T12:52:44.464Z,10.30
2022-11-14T12:55:29.468Z,10.50
2022-11-14T12:58:18.119Z,10.70
2022-11-14T13:01:14.922Z,10.60
2022-11-14T13:04:18.630Z,10.60
2022-11-14T13:07:47.827Z,10.40
2022-11-14T13:10:40.782Z,10.50
2022-11-14T13:13:44.657Z,10.60
2022-11-14T13:16:52.607Z,10.70
2022-11-14T13:20:05.504Z,10.60
2022-11-14T13:22:50.790Z,10.60
2022-11-14T13:25:36.399Z,10.60
2022-11-14T13:28:44.345Z,10.50
2022-11-14T13:31:35.972Z,10.50
2022-11-14T13:34:37.984Z,10.60
2022-11-14T13:38:06.297Z,10.60
2022-11-14T13:41:00.375Z,10.30
2022-11-14T13:44:48.597Z,10.10
2022-11-14T13:47:50.953Z,9.90
2022-11-14T13:50:43.317Z,9.90
2022-11-14T13:53:31.711Z,9.90
2022-11-14T13:56:49.681Z,9.80
2022-11-14T13:59:41.351Z,9.70
2022-11-14T14:02:52.291Z,9.80
2022-11-14T14:05:43.853Z,9.80
2022-11-14T14:08:59.334Z,9.80
2022-11-14T14:12:02.375Z,9.80
2022-11-14T14:15:23.037Z,9.80
2022-11-14T14:18:30.542Z,9.90
2022-11-14T14:21:42.514Z,9.90
2022-11-14T14:24:40.479Z,10.00
2022-11-14T14:27:37.462Z,10.00
2022-11-14T14:30:22.983Z,10.00
2022-11-14T14:33:07.971Z,10.20
2022-11-14T14:35:53.955Z,10.10
2022-11-14T14:38:39.508Z,10.10
2022-11-14T14:41:31.708Z,10.00
2022-11-14T14:44:32.148Z,10.00
2022-11-14T14:47:27.418Z,10.00
2022-11-14T14:50:22.757Z,10.00
2022-11-14T14:53:23.293Z,10.00
2022-11-14T14:56:20.868Z,9.90
2022-11-14T14:59:22.009Z,9.80
2022-11-14T15:02:16.320Z,9.80
2022-11-14T15:05:02.737Z,9.70
2022-11-14T15:07:49.973Z,9.80
2022-11-14T15:10:36.145Z,9.70
2022-11-14T15:13:23.509Z,9.70
2022-11-14T15:16:09.692Z,9.70
2022-11-14T15:18:56.680Z,9.70
2022-11-14T15:21:43.253Z,9.70
2022-11-14T15:24:28.834Z,9.80
2022-11-14T15:27:16.834Z,9.60
2022-11-14T15:30:06.452Z,9.60
2022-11-14T15:32:54.906Z,9.50
2022-11-14T15:35:40.988Z,9.60
2022-11-14T15:41:33.684Z,9.60
2022-11-14T15:44:32.892Z,9.50
2022-11-14T15:47:27.444Z,9.50
2022-11-14T15:50:12.895Z,9.50
2022-11-14T15:53:02.981Z,9.50
2022-11-14T15:55:49.033Z,9.50
2022-11-14T15:58:34.359Z,9.50
2022-11-14T16:01:24.240Z,9.50
2022-11-14T16:04:18.294Z,9.50
2022-11-14T16:07:04.787Z,9.50
2022-11-14T16:09:50.202Z,9.60
2022-11-14T16:12:35.848Z,9.60
2022-11-14T16:15:21.862Z,9.60
2022-11-14T16:18:07.059Z,9.60
2022-11-14T16:20:52.817Z,9.60
2022-11-14T16:23:39.320Z,9.70
2022-11-14T16:26:28.530Z,9.70
2022-11-14T16:29:14.428Z,9.80
2022-11-14T16:31:59.867Z,9.80
2022-11-14T16:34:45.432Z,9.70
2022-11-14T16:37:30.925Z,9.80
2022-11-14T16:40:23.118Z,9.70
2022-11-14T16:43:13.907Z,9.70
2022-11-14T16:46:04.345Z,9.70
2022-11-14T16:48:50.028Z,9.70
2022-11-14T16:51:51.396Z,9.70
2022-11-14T16:54:36.962Z,9.70
2022-11-14T16:57:22.692Z,9.70
2022-11-14T17:00:11.129Z,9.60
2022-11-14T17:02:56.349Z,9.60
2022-11-14T17:05:46.406Z,9.50
2022-11-14T17:08:32.089Z,9.50
2022-11-14T17:11:17.386Z,9.60
2022-11-14T17:14:02.641Z,9.50
2022-11-14T17:16:47.805Z,9.50
2022-11-14T17:19:33.299Z,9.50
2022-11-14T17:22:19.985Z,9.40
2022-11-14T17:25:05.748Z,9.30
2022-11-14T17:27:51.343Z,9.20
2022-11-14T17:30:43.210Z,9.20
2022-11-14T17:33:29.141Z,9.10
2022-11-14T17:36:14.945Z,9.10
2022-11-14T17:39:00.608Z,9.10
2022-11-14T17:41:46.232Z,9.00
2022-11-14T17:44:31.914Z,9.00
2022-11-14T17:47:17.382Z,8.90
2022-11-14T17:50:02.911Z,9.00
2022-11-14T17:52:48.318Z,8.90
2022-11-14T17:55:33.835Z,8.90
2022-11-14T17:58:19.361Z,8.80
2022-11-14T18:01:20.389Z,8.90
2022-11-14T18:04:06.794Z,8.80
2022-11-14T18:06:53.542Z,8.90
2022-11-14T18:09:39.007Z,9.00
2022-11-14T18:12:24.211Z,9.10
2022-11-14T18:15:09.768Z,9.20
2022-11-14T18:17:54.745Z,9.30
2022-11-14T18:20:40.002Z,9.30
2022-11-14T18:23:25.445Z,9.30
2022-11-14T18:26:16.237Z,9.40
2022-11-14T18:29:02.301Z,9.50
2022-11-14T18:31:48.280Z,9.60
2022-11-14T18:34:36.762Z,9.50
2022-11-14T18:37:22.992Z,9.50
2022-11-14T18:40:13.401Z,9.60
2022-11-14T18:43:01.165Z,9.60
2022-11-14T18:45:46.376Z,9.60
2022-11-14T18:48:31.673Z,9.40
2022-11-14T18:51:22.215Z,9.20
2022-11-14T18:54:11.513Z,9.10
2022-11-14T18:56:56.901Z,9.10
2022-11-14T18:59:42.166Z,9.20
2022-11-14T19:02:28.005Z,9.20
2022-11-14T19:05:13.746Z,9.30
2022-11-14T19:07:59.028Z,9.40
2022-11-14T19:10:44.651Z,9.40
2022-11-14T19:13:32.549Z,9.50
2022-11-14T19:16:17.997Z,9.50
2022-11-14T19:19:05.094Z,9.60
2022-11-14T19:21:50.897Z,9.70
2022-11-14T19:24:37.053Z,9.70
2022-11-14T19:27:22.488Z,9.70
2022-11-14T19:30:08.525Z,9.70
2022-11-14T19:32:53.874Z,9.70
2022-11-14T19:35:39.373Z,9.70
2022-11-14T19:38:24.891Z,9.70
2022-11-14T19:41:17.713Z,9.70
2022-11-14T19:44:03.585Z,9.60
2022-11-14T19:46:48.838Z,9.60
2022-11-14T19:49:34.361Z,9.60
2022-11-14T19:52:20.225Z,9.60
2022-11-14T19:55:05.754Z,9.50
2022-11-14T19:57:51.107Z,9.50
2022-11-14T20:00:36.619Z,9.50
2022-11-14T20:03:21.878Z,9.50
2022-11-14T20:06:26.331Z,9.50
2022-11-14T20:09:12.280Z,9.50
2022-11-14T20:11:58.173Z,9.50
2022-11-14T20:14:43.886Z,9.50
2022-11-14T20:17:29.256Z,9.50
2022-11-14T20:20:14.657Z,9.50
2022-11-14T20:23:00.099Z,9.60
2022-11-14T20:25:52.041Z,9.60
2022-11-14T20:28:39.217Z,9.60
2022-11-14T20:31:31.240Z,9.60
2022-11-14T20:34:16.629Z,9.70
2022-11-14T20:37:10.876Z,9.60
2022-11-14T20:39:57.212Z,9.60
2022-11-14T20:42:46.396Z,9.60
2022-11-14T20:45:31.643Z,9.60
2022-11-14T20:48:17.494Z,9.60
2022-11-14T20:51:04.724Z,9.70
2022-11-14T20:53:51.636Z,9.70
2022-11-14T20:56:37.584Z,9.70
2022-11-14T20:59:23.592Z,9.60
2022-11-14T21:02:12.349Z,9.60
2022-11-14T21:04:58.018Z,9.50
2022-11-14T21:07:43.536Z,9.50
2022-11-14T21:10:46.929Z,9.60
2022-11-14T21:13:55.896Z,9.60
2022-11-14T21:16:41.304Z,9.50
2022-11-14T21:19:29.043Z,9.60
2022-11-14T21:22:14.632Z,9.60
2022-11-14T21:25:00.556Z,9.60
2022-11-14T21:27:46.013Z,9.60
2022-11-14T21:30:32.191Z,9.60
2022-11-14T21:33:17.681Z,9.60
2022-11-14T21:36:37.991Z,9.60
2022-11-14T21:39:17.665Z,9.60
2022-11-14T21:42:03.276Z,9.50
2022-11-14T21:44:49.019Z,9.50
2022-11-14T21:47:34.934Z,9.40
2022-11-14T21:50:20.512Z,9.40
2022-11-14T21:53:15.785Z,9.30
2022-11-14T21:56:14.127Z,9.30
2022-11-14T21:59:14.302Z,9.40
2022-11-14T22:02:18.405Z,9.30
2022-11-14T22:05:04.007Z,9.30
2022-11-14T22:07:49.266Z,9.40
2022-11-14T22:10:37.437Z,9.40
2022-11-14T22:13:23.004Z,9.40
2022-11-14T22:16:11.305Z,9.30
2022-11-14T22:19:01.903Z,9.40
2022-11-14T22:21:50.480Z,9.40
2022-11-14T22:24:35.679Z,9.40
2022-11-14T22:27:21.328Z,9.40
2022-11-14T22:30:07.308Z,9.30
2022-11-14T22:32:52.836Z,9.30
2022-11-14T22:35:38.065Z,9.30
2022-11-14T22:38:23.571Z,9.30
2022-11-14T22:41:19.856Z,9.20
2022-11-14T22:44:05.247Z,9.20
2022-11-14T22:46:50.416Z,9.30
2022-11-14T22:49:36.166Z,9.20
2022-11-14T22:52:22.447Z,9.20
2022-11-14T22:55:11.341Z,9.20
2022-11-14T22:57:59.446Z,9.10
2022-11-14T23:00:45.005Z,9.00
2022-11-14T23:03:30.302Z,8.90
2022-11-14T23:06:21.419Z,8.90
2022-11-14T23:09:07.156Z,8.90
2022-11-14T23:11:52.248Z,8.90
2022-11-14T23:14:37.523Z,8.80
2022-11-14T23:17:22.743Z,8.80
2022-11-14T23:20:13.543Z,8.70
2022-11-14T23:23:01.467Z,8.80
2022-11-14T23:25:47.089Z,8.80
2022-11-14T23:28:33.041Z,8.80
2022-11-14T23:31:19.042Z,8.90
2022-11-14T23:34:04.373Z,8.90
2022-11-14T23:36:49.561Z,8.90
2022-11-14T23:39:35.108Z,8.90
2022-11-14T23:42:20.310Z,8.90
2022-11-14T23:45:06.069Z,9.00
2022-11-14T23:47:51.323Z,9.00
2022-11-14T23:50:36.677Z,9.00
2022-11-14T23:53:22.484Z,9.10
2022-11-14T23:56:13.555Z,9.10
2022-11-14T23:58:59.546Z,9.00
